createdAt,value
2022-08-02T00:01:14.477Z,10.70
2022-08-02T00:02:18.385Z,11.18
2022-08-02T00:03:24.432Z,11.10
2022-08-02T00:04:28.364Z,11.27
2022-08-02T00:05:32.901Z,10.73
2022-08-02T00:06:38.398Z,10.82
2022-08-02T00:07:43.568Z,11.55
2022-08-02T00:08:49.619Z,11.52
2022-08-02T00:09:54.303Z,10.57
2022-08-02T00:10:58.266Z,11.43
2022-08-02T00:12:02.729Z,11.52
2022-08-02T00:14:52.993Z,10.43
2022-08-02T00:15:56.653Z,10.70
2022-08-02T00:17:01.221Z,10.90
2022-08-02T00:18:04.852Z,10.18
2022-08-02T00:19:09.309Z,10.90
2022-08-02T00:20:13.152Z,10.80
2022-08-02T00:21:18.717Z,10.45
2022-08-02T00:22:24.220Z,10.95
2022-08-02T00:23:28.892Z,10.95
2022-08-02T00:24:32.558Z,10.80
2022-08-02T00:25:37.192Z,11.32
2022-08-02T00:27:00.038Z,12.18
2022-08-02T00:28:04.618Z,10.48
2022-08-02T00:29:08.398Z,10.93
2022-08-02T00:30:14.018Z,10.55
2022-08-02T00:31:18.575Z,11.38
2022-08-02T00:32:24.370Z,10.50
2022-08-02T00:34:27.735Z,10.75
2022-08-02T00:34:52.896Z,9.82
2022-08-02T00:35:56.736Z,10.00
2022-08-02T00:37:03.841Z,9.93
2022-08-02T00:38:09.014Z,9.85
2022-08-02T00:39:35.299Z,9.35
2022-08-02T00:40:38.434Z,9.65
2022-08-02T00:41:46.933Z,9.52
2022-08-02T00:43:04.541Z,10.57
2022-08-02T00:44:08.320Z,10.10
2022-08-02T00:45:13.187Z,10.05
2022-08-02T00:46:17.416Z,9.77
2022-08-02T00:47:23.117Z,9.60
2022-08-02T00:48:26.765Z,10.93
2022-08-02T00:49:32.929Z,10.48
2022-08-02T00:50:40.933Z,10.30
2022-08-02T00:51:45.682Z,11.68
2022-08-02T00:52:49.893Z,12.25
2022-08-02T00:53:57.561Z,11.52
2022-08-02T00:55:01.310Z,12.13
2022-08-02T00:56:06.630Z,12.27
2022-08-02T00:57:10.463Z,12.10
2022-08-02T00:58:15.430Z,12.05
2022-08-02T00:59:27.681Z,10.95
2022-08-02T01:00:34.316Z,12.07
2022-08-02T01:01:56.261Z,11.25
2022-08-02T01:03:02.293Z,11.40
2022-08-02T01:04:06.743Z,10.68
2022-08-02T01:05:11.753Z,11.07
2022-08-02T01:06:15.073Z,12.35
2022-08-02T01:07:20.119Z,13.40
2022-08-02T01:08:29.395Z,12.60
2022-08-02T01:09:38.302Z,12.68
2022-08-02T01:10:42.335Z,12.27
2022-08-02T01:11:47.070Z,13.45
2022-08-02T01:12:50.883Z,13.45
2022-08-02T01:13:55.774Z,12.63
2022-08-02T01:15:01.653Z,13.77
2022-08-02T01:16:11.600Z,13.23
2022-08-02T01:17:22.890Z,15.23
2022-08-02T01:18:32.285Z,15.15
2022-08-02T01:19:40.762Z,14.35
2022-08-02T01:21:29.668Z,15.27
2022-08-02T01:23:02.086Z,15.15
2022-08-02T01:24:21.463Z,15.35
2022-08-02T01:25:54.770Z,16.52
2022-08-02T01:27:07.318Z,16.00
2022-08-02T01:28:30.494Z,14.40
2022-08-02T01:29:37.002Z,16.63
2022-08-02T01:30:42.241Z,17.05
2022-08-02T01:31:52.513Z,16.17
2022-08-02T01:32:59.820Z,15.68
2022-08-02T01:34:08.211Z,16.42
2022-08-02T01:35:15.652Z,17.63
2022-08-02T01:36:20.951Z,16.83
2022-08-02T01:37:28.525Z,17.08
2022-08-02T01:38:35.693Z,17.45
2022-08-02T01:39:42.565Z,17.73
2022-08-02T01:40:46.341Z,18.17
2022-08-02T01:41:51.902Z,18.27
2022-08-02T01:43:01.834Z,17.10
2022-08-02T01:44:12.813Z,17.40
2022-08-02T01:45:17.066Z,18.25
2022-08-02T01:46:22.472Z,17.63
2022-08-02T01:47:30.844Z,17.40
2022-08-02T01:48:37.040Z,17.67
2022-08-02T01:49:41.011Z,18.23
2022-08-02T01:50:46.540Z,18.38
2022-08-02T01:52:11.567Z,17.92
2022-08-02T01:53:17.734Z,19.00
2022-08-02T01:56:58.353Z,18.88
2022-08-02T01:58:05.151Z,19.40
2022-08-02T01:59:21.006Z,20.33
2022-08-02T02:00:27.743Z,20.58
2022-08-02T02:01:34.286Z,20.52
2022-08-02T02:02:42.083Z,21.70
2022-08-02T02:03:48.191Z,22.15
2022-08-02T02:04:53.064Z,22.67
2022-08-02T02:05:59.136Z,22.58
2022-08-02T02:07:03.580Z,23.17
2022-08-02T02:08:09.462Z,22.88
2022-08-02T02:09:13.962Z,22.60
2022-08-02T02:10:21.392Z,22.60
2022-08-02T02:12:09.399Z,21.98
2022-08-02T02:12:52.218Z,22.63
2022-08-02T02:13:56.578Z,21.90
2022-08-02T02:15:04.330Z,21.73
2022-08-02T02:16:08.352Z,23.00
2022-08-02T02:17:57.216Z,23.40
2022-08-02T02:18:41.007Z,22.42
2022-08-02T02:19:48.841Z,23.05
2022-08-02T02:20:52.632Z,20.40
2022-08-02T02:21:57.446Z,21.65
2022-08-02T02:23:01.086Z,20.98
2022-08-02T02:24:09.090Z,21.90
2022-08-02T02:25:34.286Z,21.60
2022-08-02T02:26:52.116Z,21.27
2022-08-02T02:28:00.965Z,20.30
2022-08-02T02:29:06.548Z,20.85
2022-08-02T02:30:12.871Z,21.58
2022-08-02T02:31:19.622Z,21.10
2022-08-02T02:32:23.722Z,20.08
2022-08-02T02:33:29.561Z,21.38
2022-08-02T02:35:01.726Z,19.15
2022-08-02T02:36:26.113Z,19.80
2022-08-02T02:37:33.074Z,19.30
2022-08-02T02:38:37.478Z,19.30
2022-08-02T02:39:42.416Z,20.48
2022-08-02T02:40:47.511Z,20.42
2022-08-02T02:41:53.546Z,20.33
2022-08-02T02:42:59.252Z,19.90
2022-08-02T02:44:04.191Z,20.02
2022-08-02T02:45:10.295Z,21.48
2022-08-02T02:46:17.343Z,19.63
2022-08-02T02:47:20.942Z,19.52
2022-08-02T02:48:26.968Z,19.77
2022-08-02T02:49:58.739Z,19.98
2022-08-02T02:51:06.174Z,20.35
2022-08-02T02:54:30.250Z,19.00
2022-08-02T02:56:02.085Z,19.17
2022-08-02T02:57:24.131Z,19.45
2022-08-02T02:58:31.696Z,19.05
2022-08-02T02:59:45.364Z,20.20
2022-08-02T03:01:11.870Z,19.52
2022-08-02T03:02:18.112Z,19.27
2022-08-02T03:03:22.292Z,19.75
2022-08-02T03:04:55.162Z,20.10
2022-08-02T03:05:54.714Z,19.25
2022-08-02T03:07:31.174Z,21.38
2022-08-02T03:08:35.054Z,20.90
2022-08-02T03:09:41.651Z,20.63
2022-08-02T03:10:45.698Z,20.58
2022-08-02T03:11:50.585Z,20.70
2022-08-02T03:12:58.445Z,19.48
2022-08-02T03:14:04.537Z,19.77
2022-08-02T03:15:09.771Z,20.80
2022-08-02T03:16:14.963Z,20.92
2022-08-02T03:17:20.486Z,20.20
2022-08-02T03:18:36.659Z,20.45
2022-08-02T03:19:41.602Z,18.75
2022-08-02T03:20:46.417Z,20.08
2022-08-02T03:21:57.372Z,19.67
2022-08-02T03:23:02.841Z,19.73
2022-08-02T03:24:07.391Z,19.42
2022-08-02T03:25:12.963Z,19.10
2022-08-02T03:26:17.623Z,19.48
2022-08-02T03:27:25.465Z,19.58
2022-08-02T03:28:29.642Z,19.27
2022-08-02T03:29:37.021Z,19.05
2022-08-02T03:30:43.868Z,19.95
2022-08-02T03:31:57.535Z,19.10
2022-08-02T03:33:02.901Z,19.10
2022-08-02T03:34:07.802Z,19.17
2022-08-02T03:35:13.231Z,19.17
2022-08-02T03:36:20.989Z,19.02
2022-08-02T03:37:25.325Z,19.52
2022-08-02T03:38:30.827Z,18.38
2022-08-02T03:39:34.741Z,18.02
2022-08-02T03:40:39.945Z,18.85
2022-08-02T03:41:48.674Z,17.70
2022-08-02T03:42:53.987Z,17.65
2022-08-02T03:43:58.254Z,17.48
2022-08-02T03:45:08.211Z,17.90
2022-08-02T03:46:14.900Z,18.15
2022-08-02T03:47:19.866Z,17.40
2022-08-02T03:48:34.095Z,18.17
2022-08-02T03:49:41.513Z,17.55
2022-08-02T03:50:49.288Z,17.60
2022-08-02T03:51:57.217Z,16.90
2022-08-02T03:53:26.378Z,18.58
2022-08-02T03:54:34.829Z,17.65
2022-08-02T03:55:50.901Z,17.27
2022-08-02T03:56:55.051Z,16.85
2022-08-02T03:57:59.892Z,17.27
2022-08-02T03:59:15.123Z,17.42
2022-08-02T04:00:21.740Z,17.02
2022-08-02T04:01:29.693Z,17.58
2022-08-02T04:02:32.993Z,17.65
2022-08-02T04:03:38.919Z,16.13
2022-08-02T04:04:42.509Z,17.70
2022-08-02T04:06:28.371Z,17.92
2022-08-02T04:08:33.447Z,18.20
2022-08-02T04:08:58.510Z,17.13
2022-08-02T04:10:02.131Z,17.00
2022-08-02T04:11:24.621Z,18.88
2022-08-02T04:12:36.891Z,18.45
2022-08-02T04:13:42.173Z,17.45
2022-08-02T04:14:47.232Z,17.77
2022-08-02T04:15:55.023Z,17.80
2022-08-02T04:17:04.730Z,18.77
2022-08-02T04:18:08.456Z,17.45
2022-08-02T04:19:19.010Z,17.70
2022-08-02T04:20:23.854Z,17.15
2022-08-02T04:21:48.551Z,18.48
2022-08-02T04:23:02.500Z,18.52
2022-08-02T04:24:08.395Z,17.00
2022-08-02T04:25:17.548Z,17.85
2022-08-02T04:26:27.524Z,17.73
2022-08-02T04:27:51.322Z,16.73
2022-08-02T04:28:57.477Z,17.02
2022-08-02T04:30:02.184Z,16.55
2022-08-02T04:31:05.898Z,17.13
2022-08-02T04:32:10.718Z,17.58
2022-08-02T04:33:14.295Z,17.00
2022-08-02T04:34:19.916Z,16.15
2022-08-02T04:35:23.333Z,16.27
2022-08-02T04:36:30.851Z,18.13
2022-08-02T04:37:35.237Z,17.20
2022-08-02T04:38:39.733Z,17.63
2022-08-02T04:39:43.212Z,18.30
2022-08-02T04:40:57.367Z,18.10
2022-08-02T04:42:00.497Z,17.58
2022-08-02T04:43:04.706Z,17.67
2022-08-02T04:44:08.036Z,19.60
2022-08-02T04:45:16.599Z,19.13
2022-08-02T04:46:21.772Z,18.40
2022-08-02T04:47:54.181Z,18.23
2022-08-02T04:48:49.958Z,18.85
2022-08-02T04:49:55.092Z,18.17
2022-08-02T04:50:59.427Z,18.20
2022-08-02T04:52:02.605Z,18.42
2022-08-02T04:53:06.998Z,18.58
2022-08-02T04:54:12.905Z,19.90
2022-08-02T04:55:18.539Z,18.10
2022-08-02T04:56:27.092Z,19.65
2022-08-02T04:57:53.211Z,19.48
2022-08-02T04:59:01.287Z,18.33
2022-08-02T05:00:24.815Z,18.88
2022-08-02T05:01:39.661Z,20.77
2022-08-02T05:02:43.122Z,21.33
2022-08-02T05:03:53.841Z,20.52
2022-08-02T05:05:10.052Z,20.27
2022-08-02T05:06:21.843Z,20.83
2022-08-02T05:07:25.701Z,20.50
2022-08-02T05:08:30.263Z,21.45
2022-08-02T05:09:33.714Z,21.13
2022-08-02T05:10:38.085Z,21.05
2022-08-02T05:11:41.351Z,21.10
2022-08-02T05:12:45.692Z,24.08
2022-08-02T05:13:58.833Z,22.33
2022-08-02T05:15:03.961Z,21.15
2022-08-02T05:16:08.711Z,21.70
2022-08-02T05:17:12.280Z,21.17
2022-08-02T05:18:16.539Z,20.83
2022-08-02T05:19:20.673Z,19.98
2022-08-02T05:20:26.694Z,19.50
2022-08-02T05:21:30.085Z,21.27
2022-08-02T05:22:34.676Z,20.43
2022-08-02T05:23:38.976Z,20.00
2022-08-02T05:24:42.730Z,20.33
2022-08-02T05:25:49.801Z,19.17
2022-08-02T05:26:54.675Z,19.87
2022-08-02T05:27:59.122Z,18.60
2022-08-02T05:29:03.463Z,18.67
2022-08-02T05:30:09.525Z,19.37
2022-08-02T05:31:13.941Z,18.33
2022-08-02T05:32:17.185Z,20.03
2022-08-02T05:33:21.694Z,18.47
2022-08-02T05:34:24.894Z,18.27
2022-08-02T05:35:30.842Z,17.50
2022-08-02T05:36:35.530Z,18.10
2022-08-02T05:37:46.763Z,18.63
2022-08-02T05:38:51.503Z,18.67
2022-08-02T05:39:56.422Z,18.03
2022-08-02T05:41:01.021Z,19.23
2022-08-02T05:42:04.803Z,19.13
2022-08-02T05:43:13.833Z,18.80
2022-08-02T05:44:17.289Z,18.40
2022-08-02T05:45:21.868Z,18.07
2022-08-02T05:46:26.594Z,18.53
2022-08-02T05:47:30.125Z,17.57
2022-08-02T05:48:34.717Z,18.80
2022-08-02T05:49:38.251Z,18.50
2022-08-02T05:50:47.146Z,19.03
2022-08-02T05:52:02.855Z,17.87
2022-08-02T05:53:13.614Z,17.43
2022-08-02T05:54:20.989Z,19.10
2022-08-02T05:55:29.075Z,19.03
2022-08-02T05:56:34.644Z,19.67
2022-08-02T05:57:48.764Z,17.03
2022-08-02T05:58:57.851Z,18.50
2022-08-02T06:00:08.964Z,19.43
2022-08-02T06:01:24.444Z,17.77
2022-08-02T06:02:32.384Z,17.73
2022-08-02T06:03:39.227Z,18.87
2022-08-02T06:04:50.092Z,18.73
2022-08-02T06:06:01.745Z,18.43
2022-08-02T06:07:07.345Z,19.73
2022-08-02T06:08:13.788Z,17.70
2022-08-02T06:09:21.065Z,20.10
2022-08-02T06:10:31.523Z,18.37
2022-08-02T06:11:36.409Z,17.87
2022-08-02T06:12:45.256Z,18.57
2022-08-02T06:13:48.812Z,17.13
2022-08-02T06:14:54.672Z,16.93
2022-08-02T06:15:59.892Z,16.40
2022-08-02T06:17:06.382Z,17.13
2022-08-02T06:18:10.272Z,17.30
2022-08-02T06:19:15.172Z,16.10
2022-08-02T06:20:18.982Z,16.83
2022-08-02T06:22:33.421Z,16.03
2022-08-02T06:22:50.348Z,15.63
2022-08-02T06:23:57.897Z,15.97
2022-08-02T06:25:04.560Z,15.53
2022-08-02T06:26:09.126Z,16.47
2022-08-02T06:27:15.227Z,16.10
2022-08-02T06:28:20.120Z,16.03
2022-08-02T06:29:25.030Z,15.20
2022-08-02T06:30:28.917Z,15.27
2022-08-02T06:31:33.404Z,14.50
2022-08-02T06:32:37.261Z,15.17
2022-08-02T06:33:42.158Z,14.80
2022-08-02T06:34:46.508Z,14.67
2022-08-02T06:35:58.035Z,14.60
2022-08-02T06:37:12.813Z,14.53
2022-08-02T06:38:23.203Z,15.43
2022-08-02T06:39:33.030Z,15.77
2022-08-02T06:40:41.355Z,15.67
2022-08-02T06:41:50.275Z,16.00
2022-08-02T06:43:14.486Z,16.93
2022-08-02T06:44:45.849Z,16.00
2022-08-02T06:45:42.721Z,15.50
2022-08-02T06:47:11.568Z,17.20
2022-08-02T06:48:12.479Z,16.97
2022-08-02T06:49:15.753Z,17.17
2022-08-02T06:50:20.213Z,16.67
2022-08-02T06:51:30.835Z,17.43
2022-08-02T06:52:36.513Z,16.70
2022-08-02T06:53:41.155Z,16.83
2022-08-02T06:54:44.618Z,17.07
2022-08-02T06:55:49.024Z,18.00
2022-08-02T06:56:52.502Z,17.63
2022-08-02T06:57:57.100Z,17.70
2022-08-02T06:59:05.571Z,16.47
2022-08-02T07:00:12.872Z,17.77
2022-08-02T07:01:17.670Z,19.37
2022-08-02T07:02:21.549Z,19.90
2022-08-02T07:03:27.086Z,19.70
2022-08-02T07:04:30.383Z,20.27
2022-08-02T07:05:34.491Z,19.57
2022-08-02T07:06:37.862Z,20.07
2022-08-02T07:07:43.687Z,19.87
2022-08-02T07:09:04.899Z,20.43
2022-08-02T07:10:12.252Z,20.33
2022-08-02T07:11:15.588Z,19.93
2022-08-02T07:12:19.804Z,18.70
2022-08-02T07:13:24.104Z,19.33
2022-08-02T07:14:27.340Z,19.23
2022-08-02T07:15:31.734Z,18.27
2022-08-02T07:16:35.004Z,17.27
2022-08-02T07:17:39.070Z,18.03
2022-08-02T07:18:42.312Z,18.63
2022-08-02T07:19:46.823Z,19.47
2022-08-02T07:20:50.028Z,19.57
2022-08-02T07:21:59.266Z,18.47
2022-08-02T07:23:09.764Z,20.33
2022-08-02T07:24:13.987Z,18.97
2022-08-02T07:25:18.577Z,19.13
2022-08-02T07:26:21.876Z,20.27
2022-08-02T07:27:26.595Z,19.37
2022-08-02T07:28:30.753Z,20.00
2022-08-02T07:29:45.901Z,18.90
2022-08-02T07:30:51.166Z,20.27
2022-08-02T07:31:54.532Z,18.97
2022-08-02T07:32:58.753Z,17.87
2022-08-02T07:34:01.975Z,17.77
2022-08-02T07:35:07.873Z,16.47
2022-08-02T07:36:16.980Z,17.20
2022-08-02T07:37:53.194Z,16.30
2022-08-02T07:38:55.173Z,18.60
2022-08-02T07:39:58.505Z,18.73
2022-08-02T07:41:03.575Z,16.93
2022-08-02T07:42:07.275Z,17.27
2022-08-02T07:43:11.599Z,17.83
2022-08-02T07:44:15.761Z,18.10
2022-08-02T07:45:19.969Z,17.47
2022-08-02T07:46:23.378Z,15.87
2022-08-02T07:47:27.736Z,15.70
2022-08-02T07:48:31.003Z,14.30
2022-08-02T07:49:35.251Z,13.50
2022-08-02T07:50:39.673Z,13.40
2022-08-02T07:51:43.039Z,13.20
2022-08-02T07:52:50.132Z,14.23
2022-08-02T07:54:02.721Z,14.17
2022-08-02T07:55:09.809Z,15.40
2022-08-02T07:56:14.093Z,14.07
2022-08-02T07:57:18.352Z,14.10
2022-08-02T07:58:21.816Z,13.97
2022-08-02T07:59:26.046Z,13.70
2022-08-02T08:00:30.753Z,14.17
2022-08-02T08:01:34.571Z,16.57
2022-08-02T08:02:40.618Z,15.87
2022-08-02T08:03:44.172Z,16.50
2022-08-02T08:04:48.287Z,15.77
2022-08-02T08:05:54.620Z,15.20
2022-08-02T08:06:57.760Z,15.47
2022-08-02T08:08:01.993Z,16.03
2022-08-02T08:09:07.707Z,16.50
2022-08-02T08:10:11.352Z,15.93
2022-08-02T08:11:15.770Z,15.83
2022-08-02T08:12:20.204Z,15.80
2022-08-02T08:13:24.915Z,15.73
2022-08-02T08:14:28.101Z,15.63
2022-08-02T08:15:32.398Z,16.07
2022-08-02T08:16:36.853Z,15.00
2022-08-02T08:17:40.094Z,14.77
2022-08-02T08:18:44.758Z,16.17
2022-08-02T08:19:50.833Z,14.67
2022-08-02T08:20:56.981Z,14.27
2022-08-02T08:22:00.968Z,13.43
2022-08-02T08:23:05.262Z,12.90
2022-08-02T08:24:11.152Z,12.97
2022-08-02T08:25:14.545Z,14.17
2022-08-02T08:26:19.056Z,14.27
2022-08-02T08:27:23.403Z,14.97
2022-08-02T08:28:27.768Z,14.10
2022-08-02T08:29:31.814Z,13.87
2022-08-02T08:30:34.973Z,13.53
2022-08-02T08:31:39.453Z,14.80
2022-08-02T08:32:42.773Z,13.87
2022-08-02T08:33:47.172Z,14.90
2022-08-02T08:34:51.534Z,14.97
2022-08-02T08:35:56.372Z,14.77
2022-08-02T08:36:59.444Z,15.07
2022-08-02T08:38:07.505Z,13.97
2022-08-02T08:39:13.423Z,13.77
2022-08-02T08:40:19.620Z,14.17
2022-08-02T08:41:24.155Z,14.33
2022-08-02T08:42:27.479Z,13.47
2022-08-02T08:43:31.691Z,13.13
2022-08-02T08:44:35.473Z,12.97
2022-08-02T08:45:41.470Z,13.00
2022-08-02T08:46:45.203Z,14.17
2022-08-02T08:47:54.041Z,13.27
2022-08-02T08:49:02.842Z,10.90
2022-08-02T08:50:11.596Z,10.23
2022-08-02T08:51:22.953Z,9.90
2022-08-02T08:52:27.974Z,8.70
2022-08-02T08:53:36.484Z,8.53
2022-08-02T08:54:43.716Z,9.40
2022-08-02T08:55:53.360Z,8.00
2022-08-02T08:56:58.369Z,8.07
2022-08-02T08:58:03.071Z,7.83
2022-08-02T08:59:07.446Z,7.83
2022-08-02T09:00:13.205Z,8.03
2022-08-02T09:01:17.886Z,7.63
2022-08-02T09:02:26.035Z,7.90
2022-08-02T09:03:33.883Z,7.33
2022-08-02T09:04:38.901Z,8.27
2022-08-02T09:05:43.561Z,7.60
2022-08-02T09:06:46.651Z,6.97
2022-08-02T09:07:52.186Z,7.00
2022-08-02T09:08:55.449Z,6.73
2022-08-02T09:10:01.333Z,6.53
2022-08-02T09:11:13.503Z,6.83
2022-08-02T09:12:18.347Z,5.97
2022-08-02T09:13:38.502Z,6.53
2022-08-02T09:14:49.942Z,6.30
2022-08-02T09:15:56.357Z,5.93
2022-08-02T09:17:09.617Z,5.50
2022-08-02T09:18:13.458Z,6.40
2022-08-02T09:19:22.547Z,6.57
2022-08-02T09:20:30.437Z,6.13
2022-08-02T09:21:39.246Z,6.30
2022-08-02T09:22:42.653Z,6.57
2022-08-02T09:23:48.676Z,6.30
2022-08-02T09:24:53.584Z,6.83
2022-08-02T09:26:04.518Z,6.77
2022-08-02T09:27:16.332Z,6.70
2022-08-02T09:28:19.431Z,7.27
2022-08-02T09:29:25.953Z,6.90
2022-08-02T09:30:29.828Z,6.77
2022-08-02T09:31:35.872Z,7.83
2022-08-02T09:32:46.843Z,8.33
2022-08-02T09:33:54.763Z,7.87
2022-08-02T09:34:59.282Z,7.20
2022-08-02T09:36:07.184Z,7.87
2022-08-02T09:37:24.385Z,7.50
2022-08-02T09:38:27.745Z,7.27
2022-08-02T09:39:47.607Z,7.00
2022-08-02T09:40:51.061Z,6.53
2022-08-02T09:42:11.043Z,6.17
2022-08-02T09:43:14.719Z,6.40
2022-08-02T09:44:18.821Z,6.63
2022-08-02T09:45:21.899Z,6.17
2022-08-02T09:46:28.467Z,6.60
2022-08-02T09:47:37.539Z,6.40
2022-08-02T09:48:55.042Z,6.60
2022-08-02T09:50:00.089Z,6.27
2022-08-02T09:51:03.455Z,5.97
2022-08-02T09:52:08.291Z,6.30
2022-08-02T09:53:13.333Z,6.90
2022-08-02T09:54:19.753Z,7.97
2022-08-02T09:55:23.172Z,8.30
2022-08-02T09:56:29.455Z,8.87
2022-08-02T09:57:40.237Z,8.93
2022-08-02T09:58:44.514Z,8.93
2022-08-02T09:59:54.823Z,8.00
2022-08-02T10:00:59.383Z,8.23
2022-08-02T10:02:17.609Z,8.70
2022-08-02T10:03:23.123Z,8.67
2022-08-02T10:04:53.163Z,8.57
2022-08-02T10:06:03.030Z,8.20
2022-08-02T10:07:06.863Z,8.30
2022-08-02T10:08:11.241Z,7.70
2022-08-02T10:09:17.002Z,7.83
2022-08-02T10:10:20.236Z,7.70
2022-08-02T10:11:30.700Z,7.10
2022-08-02T10:12:37.303Z,7.53
2022-08-02T10:13:42.117Z,7.77
2022-08-02T10:14:47.064Z,7.73
2022-08-02T10:15:50.824Z,7.90
2022-08-02T10:16:55.410Z,7.90
2022-08-02T10:17:58.951Z,7.33
2022-08-02T10:19:04.852Z,8.53
2022-08-02T10:20:10.243Z,8.70
2022-08-02T10:21:15.799Z,8.83
2022-08-02T10:22:20.653Z,8.73
2022-08-02T10:23:26.860Z,8.57
2022-08-02T10:24:33.793Z,8.83
2022-08-02T10:25:37.630Z,8.43
2022-08-02T10:26:45.365Z,7.77
2022-08-02T10:28:04.654Z,8.00
2022-08-02T10:29:12.716Z,7.60
2022-08-02T10:30:16.134Z,7.80
2022-08-02T10:31:24.024Z,7.33
2022-08-02T10:32:32.610Z,7.60
2022-08-02T10:33:36.798Z,7.83
2022-08-02T10:34:51.124Z,7.23
2022-08-02T10:36:04.486Z,8.33
2022-08-02T10:37:14.807Z,8.87
2022-08-02T10:38:20.172Z,8.60
2022-08-02T10:39:24.366Z,10.17
2022-08-02T10:40:44.523Z,10.77
2022-08-02T10:41:50.621Z,10.13
2022-08-02T10:42:56.225Z,9.93
2022-08-02T10:44:00.771Z,10.73
2022-08-02T10:45:15.283Z,10.60
2022-08-02T10:46:23.542Z,11.70
2022-08-02T10:47:28.081Z,12.63
2022-08-02T10:48:31.202Z,11.07
2022-08-02T10:49:50.047Z,9.83
2022-08-02T10:50:54.292Z,9.43
2022-08-02T10:52:09.682Z,8.80
2022-08-02T10:53:27.854Z,9.17
2022-08-02T10:54:35.433Z,8.43
2022-08-02T10:55:46.919Z,8.37
2022-08-02T10:56:52.850Z,7.70
2022-08-02T10:58:18.721Z,7.77
2022-08-02T10:59:26.750Z,7.77
2022-08-02T11:00:32.466Z,8.30
2022-08-02T11:01:44.641Z,7.87
2022-08-02T11:02:53.585Z,8.50
2022-08-02T11:03:59.882Z,8.57
2022-08-02T11:05:15.717Z,8.73
2022-08-02T11:06:25.674Z,7.10
2022-08-02T11:07:34.057Z,7.20
2022-08-02T11:08:40.794Z,7.40
2022-08-02T11:09:45.913Z,7.53
2022-08-02T11:10:50.171Z,8.57
2022-08-02T11:12:01.646Z,8.43
2022-08-02T11:13:11.997Z,7.13
2022-08-02T11:14:15.611Z,8.17
2022-08-02T11:15:20.724Z,7.63
2022-08-02T11:17:05.761Z,8.63
2022-08-02T11:18:10.164Z,8.43
2022-08-02T11:19:13.344Z,7.70
2022-08-02T11:20:19.272Z,7.33
2022-08-02T11:21:23.655Z,8.10
2022-08-02T11:22:28.431Z,8.30
2022-08-02T11:23:44.951Z,7.97
2022-08-02T11:24:50.285Z,8.33
2022-08-02T11:26:11.367Z,8.13
2022-08-02T11:27:21.896Z,7.57
2022-08-02T11:28:26.961Z,7.80
2022-08-02T11:29:38.203Z,6.87
2022-08-02T11:30:43.233Z,7.60
2022-08-02T11:31:48.672Z,6.70
2022-08-02T11:32:53.260Z,7.97
2022-08-02T11:33:56.422Z,7.40
2022-08-02T11:35:00.801Z,7.53
2022-08-02T11:36:05.937Z,7.33
2022-08-02T11:37:10.492Z,7.67
2022-08-02T11:38:16.137Z,6.97
2022-08-02T11:39:21.688Z,8.07
2022-08-02T11:40:24.919Z,7.13
2022-08-02T11:41:46.600Z,8.60
2022-08-02T11:42:53.983Z,8.20
2022-08-02T11:43:58.382Z,7.28
2022-08-02T11:45:02.796Z,7.83
2022-08-02T11:46:06.113Z,7.28
2022-08-02T11:47:12.843Z,6.88
2022-08-02T11:48:16.052Z,7.80
2022-08-02T11:49:20.515Z,7.28
2022-08-02T11:50:30.302Z,6.95
2022-08-02T11:51:35.146Z,7.45
2022-08-02T11:52:38.588Z,7.57
2022-08-02T11:53:44.333Z,6.68
2022-08-02T11:54:51.094Z,6.60
2022-08-02T11:55:57.583Z,6.35
2022-08-02T11:57:20.158Z,6.78
2022-08-02T11:58:24.192Z,5.88
2022-08-02T11:59:28.343Z,5.93
2022-08-02T12:00:31.493Z,5.82
2022-08-02T12:01:46.161Z,6.70
2022-08-02T12:02:52.159Z,6.05
2022-08-02T12:04:01.109Z,6.78
2022-08-02T12:05:08.858Z,5.70
2022-08-02T12:06:16.652Z,5.97
2022-08-02T12:07:34.665Z,5.88
2022-08-02T12:08:39.195Z,6.40
2022-08-02T12:09:43.363Z,6.40
2022-08-02T12:10:48.173Z,5.72
2022-08-02T12:11:52.693Z,5.65
2022-08-02T12:12:58.024Z,5.90
2022-08-02T12:14:02.434Z,6.07
2022-08-02T12:15:10.568Z,5.93
2022-08-02T12:16:34.044Z,6.30
2022-08-02T12:17:55.721Z,6.28
2022-08-02T12:19:18.966Z,6.57
2022-08-02T12:20:23.205Z,5.80
2022-08-02T12:21:27.310Z,6.40
2022-08-02T12:22:31.791Z,6.50
2022-08-02T12:23:59.467Z,6.32
2022-08-02T12:25:33.575Z,5.40
2022-08-02T12:26:46.062Z,5.63
2022-08-02T12:27:53.379Z,5.53
2022-08-02T12:29:01.702Z,5.47
2022-08-02T12:30:08.927Z,5.30
2022-08-02T12:31:14.383Z,5.40
2022-08-02T12:32:26.073Z,6.47
2022-08-02T12:33:32.382Z,5.68
2022-08-02T12:34:38.862Z,5.63
2022-08-02T12:35:43.152Z,5.57
2022-08-02T12:36:59.276Z,5.55
2022-08-02T12:38:11.160Z,5.60
2022-08-02T12:39:14.908Z,5.20
2022-08-02T12:40:25.506Z,5.93
2022-08-02T12:41:32.483Z,5.55
2022-08-02T12:42:48.043Z,5.22
2022-08-02T12:43:53.072Z,5.70
2022-08-02T12:44:58.955Z,5.80
2022-08-02T12:46:03.091Z,5.63
2022-08-02T12:47:09.666Z,6.18
2022-08-02T12:48:14.274Z,6.18
2022-08-02T12:49:19.017Z,5.97
2022-08-02T12:50:27.563Z,5.50
2022-08-02T12:51:56.591Z,5.70
2022-08-02T12:53:09.465Z,5.65
2022-08-02T12:54:17.993Z,5.57
2022-08-02T12:55:24.391Z,5.10
2022-08-02T12:56:29.070Z,5.75
2022-08-02T12:57:33.481Z,5.40
2022-08-02T12:58:49.130Z,5.50
2022-08-02T12:59:54.955Z,6.38
2022-08-02T13:01:00.966Z,5.63
2022-08-02T13:02:06.564Z,5.55
2022-08-02T13:04:11.520Z,5.57
2022-08-02T13:04:36.405Z,5.68
2022-08-02T13:05:56.056Z,5.53
2022-08-02T13:07:02.948Z,4.90
2022-08-02T13:08:06.876Z,5.30
2022-08-02T13:09:16.030Z,5.00
2022-08-02T13:10:21.092Z,4.60
2022-08-02T13:11:24.392Z,4.75
2022-08-02T13:12:28.531Z,4.93
2022-08-02T13:13:32.620Z,5.03
2022-08-02T13:14:41.918Z,4.88
2022-08-02T13:15:50.776Z,4.53
2022-08-02T13:16:55.463Z,4.82
2022-08-02T13:17:59.417Z,4.93
2022-08-02T13:19:03.520Z,4.82
2022-08-02T13:20:11.315Z,5.70
2022-08-02T13:21:39.973Z,4.95
2022-08-02T13:22:42.757Z,5.68
2022-08-02T13:23:56.540Z,5.30
2022-08-02T13:25:04.891Z,5.65
2022-08-02T13:26:09.611Z,5.25
2022-08-02T13:27:13.002Z,5.00
2022-08-02T13:28:17.380Z,4.60
2022-08-02T13:29:20.593Z,4.85
2022-08-02T13:30:24.903Z,4.95
2022-08-02T13:31:36.687Z,5.00
2022-08-02T13:32:41.123Z,5.30
2022-08-02T13:33:44.506Z,5.80
2022-08-02T13:34:48.991Z,5.28
2022-08-02T13:35:52.365Z,5.72
2022-08-02T13:36:58.343Z,5.15
2022-08-02T13:38:04.599Z,5.60
2022-08-02T13:39:10.771Z,5.57
2022-08-02T13:40:23.000Z,5.30
2022-08-02T13:41:26.382Z,6.07
2022-08-02T13:42:31.933Z,6.18
2022-08-02T13:43:53.553Z,5.50
2022-08-02T13:45:00.223Z,4.88
2022-08-02T13:46:16.395Z,4.90
2022-08-02T13:47:36.357Z,4.47
2022-08-02T13:48:58.015Z,5.03
2022-08-02T13:50:01.545Z,4.50
2022-08-02T13:51:14.860Z,4.50
2022-08-02T13:52:20.620Z,4.47
2022-08-02T13:53:25.056Z,4.63
2022-08-02T13:54:29.145Z,4.73
2022-08-02T13:55:32.341Z,4.37
2022-08-02T13:56:37.642Z,5.03
2022-08-02T13:57:41.415Z,4.57
2022-08-02T13:58:46.062Z,4.53
2022-08-02T13:59:56.539Z,4.20
2022-08-02T14:01:03.291Z,4.43
2022-08-02T14:02:07.226Z,5.10
2022-08-02T14:03:12.221Z,4.93
2022-08-02T14:04:16.651Z,4.70
2022-08-02T14:05:19.684Z,4.50
2022-08-02T14:06:43.561Z,4.83
2022-08-02T14:07:49.247Z,4.83
2022-08-02T14:08:52.570Z,4.33
2022-08-02T14:09:56.717Z,4.53
2022-08-02T14:11:00.121Z,4.60
2022-08-02T14:12:04.710Z,4.23
2022-08-02T14:13:07.861Z,4.60
2022-08-02T14:14:15.888Z,4.97
2022-08-02T14:15:20.506Z,4.60
2022-08-02T14:16:24.864Z,4.40
2022-08-02T14:17:37.330Z,4.87
2022-08-02T14:18:40.508Z,5.03
2022-08-02T14:19:44.811Z,4.90
2022-08-02T14:20:47.871Z,4.80
2022-08-02T14:21:53.070Z,4.70
2022-08-02T14:23:16.526Z,4.10
2022-08-02T14:24:21.471Z,4.70
2022-08-02T14:25:26.276Z,5.10
2022-08-02T14:26:29.331Z,5.10
2022-08-02T14:27:39.274Z,4.87
2022-08-02T14:28:43.831Z,4.67
2022-08-02T14:29:48.453Z,4.23
2022-08-02T14:30:52.835Z,4.67
2022-08-02T14:31:55.921Z,4.87
2022-08-02T14:33:00.234Z,4.43
2022-08-02T14:34:04.491Z,4.43
2022-08-02T14:35:09.121Z,4.80
2022-08-02T14:36:12.600Z,4.40
2022-08-02T14:37:16.867Z,4.10
2022-08-02T14:38:23.641Z,4.27
2022-08-02T14:39:27.006Z,4.50
2022-08-02T14:40:47.262Z,4.37
2022-08-02T14:42:00.017Z,4.23
2022-08-02T14:43:05.090Z,4.47
2022-08-02T14:44:08.673Z,4.27
2022-08-02T14:45:13.221Z,4.03
2022-08-02T14:46:17.348Z,4.10
2022-08-02T14:47:22.448Z,3.90
2022-08-02T14:48:25.834Z,4.03
2022-08-02T14:49:30.590Z,4.10
2022-08-02T14:50:34.053Z,3.87
2022-08-02T14:51:39.333Z,4.23
2022-08-02T14:52:42.816Z,3.90